Time;durP1;ratioP1;P1;durP2;ratioP2;P2;SDS_P1;SDS_P2;PMS_P1;PMS_P2;Temp;Humidity;BMP_temperature;BMP_pressure;BME280_temperature;BME280_humidity;BME280_pressure;Samples;Min_cycle;Max_cycle;Signal;HPM_P1;HPM_P2
2023/12/02 00:00:26;;;;;;;1.00;1.00;;;-1.10;99.90;;;;;;6185891;23;20013;-76
2023/12/02 00:02:52;;;;;;;1.30;0.85;;;-1.10;99.90;;;;;;6186374;23;20009;-76
2023/12/02 00:05:17;;;;;;;0.85;0.68;;;-1.10;99.90;;;;;;6183971;23;20462;-76
2023/12/02 00:07:43;;;;;;;0.85;0.85;;;-1.10;99.90;;;;;;6181915;23;20009;-76
2023/12/02 00:10:11;;;;;;;0.32;0.32;;;-1.10;99.90;;;;;;6185210;23;20048;-76
2023/12/02 00:12:37;;;;;;;0.10;0.10;;;-1.10;99.90;;;;;;6212661;23;20339;-76
2023/12/02 00:15:03;;;;;;;0.30;0.30;;;-1.10;99.90;;;;;;6207235;23;20024;-76
2023/12/02 00:17:28;;;;;;;2.70;0.52;;;-1.10;99.90;;;;;;6184589;23;20543;-76
2023/12/02 00:19:54;;;;;;;2.15;0.95;;;-1.10;99.90;;;;;;6160422;23;20040;-76
2023/12/02 00:22:20;;;;;;;0.60;0.57;;;-1.00;99.90;;;;;;6208207;23;20115;-76
2023/12/02 00:24:45;;;;;;;0.38;0.38;;;-1.10;99.90;;;;;;6182454;23;20023;-76
2023/12/02 00:27:11;;;;;;;2.63;0.43;;;-1.10;99.90;;;;;;6181932;23;20012;-76
2023/12/02 00:29:36;;;;;;;1.70;0.75;;;-1.10;99.90;;;;;;6158884;23;20459;-76
2023/12/02 00:32:02;;;;;;;4.28;0.57;;;-1.00;99.90;;;;;;6181667;23;20447;-76
2023/12/02 00:34:28;;;;;;;0.50;0.50;;;-1.00;99.90;;;;;;6210604;23;20066;-76
2023/12/02 00:36:53;;;;;;;0.90;0.55;;;-1.00;99.90;;;;;;6183706;23;20448;-76
2023/12/02 00:39:19;;;;;;;0.65;0.38;;;-1.10;99.90;;;;;;6183783;23;20016;-76
2023/12/02 00:41:44;;;;;;;0.40;0.40;;;-1.10;99.90;;;;;;6185038;23;20013;-76
2023/12/02 00:44:10;;;;;;;2.17;1.23;;;-1.10;99.90;;;;;;6210626;23;20380;-76
2023/12/02 00:46:35;;;;;;;3.13;1.50;;;-1.00;99.90;;;;;;6210720;23;20366;-76
2023/12/02 00:49:01;;;;;;;0.55;0.55;;;-1.10;99.90;;;;;;6183508;23;20016;-76
2023/12/02 00:51:28;;;;;;;0.90;0.73;;;-1.00;99.90;;;;;;6210553;23;20012;-76
2023/12/02 00:53:54;;;;;;;1.30;1.10;;;-1.00;99.90;;;;;;6209811;23;20013;-76
2023/12/02 00:56:19;;;;;;;0.85;0.85;;;-1.00;99.90;;;;;;6156239;23;20082;-76
2023/12/02 00:58:45;;;;;;;0.43;0.43;;;-1.00;99.90;;;;;;6179379;23;20055;-76
2023/12/02 01:01:10;;;;;;;0.60;0.60;;;-1.00;99.90;;;;;;6180383;23;20027;-76
2023/12/02 01:03:36;;;;;;;0.88;0.88;;;-1.00;99.90;;;;;;6156588;23;20087;-76
2023/12/02 01:06:02;;;;;;;4.68;0.63;;;-1.00;99.90;;;;;;6210548;23;20042;-76
2023/12/02 01:08:27;;;;;;;3.85;0.85;;;-1.00;99.90;;;;;;6208973;23;20012;-76
2023/12/02 01:10:53;;;;;;;0.43;0.43;;;-1.00;99.90;;;;;;6183799;23;20023;-76
2023/12/02 01:13:19;;;;;;;0.80;0.77;;;-1.00;99.90;;;;;;6183193;23;20105;-76
2023/12/02 01:15:44;;;;;;;0.10;0.10;;;-1.00;99.90;;;;;;6181466;23;20016;-76
2023/12/02 01:18:10;;;;;;;0.63;0.63;;;-1.00;99.90;;;;;;6182620;23;20024;-77
2023/12/02 01:20:35;;;;;;;0.75;0.75;;;-1.00;99.90;;;;;;6181271;23;20030;-76
2023/12/02 01:23:01;;;;;;;0.95;0.70;;;-1.00;99.90;;;;;;6182766;23;20462;-76
2023/12/02 01:25:27;;;;;;;3.15;1.00;;;-1.00;99.90;;;;;;6181561;23;20149;-76
2023/12/02 01:27:53;;;;;;;0.15;0.15;;;-1.00;99.90;;;;;;6180134;23;20008;-76
2023/12/02 01:30:18;;;;;;;0.50;0.50;;;-1.00;99.90;;;;;;6211002;23;20107;-76
2023/12/02 01:32:44;;;;;;;0.40;0.40;;;-0.90;99.90;;;;;;6180949;23;20348;-76
2023/12/02 01:35:09;;;;;;;2.83;0.90;;;-0.90;99.90;;;;;;6181508;23;20020;-76
2023/12/02 01:37:35;;;;;;;0.57;0.57;;;-1.00;99.90;;;;;;6183475;23;20012;-76
2023/12/02 01:40:00;;;;;;;0.57;0.57;;;-0.90;99.90;;;;;;6183730;23;20048;-76
2023/12/02 01:42:26;;;;;;;0.43;0.43;;;-0.90;99.90;;;;;;6184335;23;20075;-76
2023/12/02 01:44:52;;;;;;;0.85;0.85;;;-0.90;99.90;;;;;;6154940;23;20022;-76
2023/12/02 01:47:17;;;;;;;0.17;0.17;;;-0.90;99.90;;;;;;6157560;23;20016;-76
2023/12/02 01:49:44;;;;;;;8.27;0.52;;;-0.90;99.90;;;;;;6181887;23;20062;-76
2023/12/02 01:52:10;;;;;;;0.20;0.20;;;-0.90;99.90;;;;;;6181790;23;20021;-76
2023/12/02 01:54:36;;;;;;;0.17;0.17;;;-0.80;99.90;;;;;;6180552;23;20330;-76
2023/12/02 01:57:02;;;;;;;0.95;0.90;;;-0.80;99.90;;;;;;6182680;23;20023;-76
2023/12/02 01:59:29;;;;;;;0.55;0.52;;;-0.90;99.90;;;;;;6182667;23;20013;-76
2023/12/02 02:01:55;;;;;;;0.57;0.55;;;-0.90;99.90;;;;;;6182475;23;20016;-76
2023/12/02 02:04:20;;;;;;;0.57;0.50;;;-0.90;99.90;;;;;;6182275;23;20021;-76
2023/12/02 02:06:46;;;;;;;1.15;0.95;;;-0.80;99.90;;;;;;6206966;23;20074;-76
2023/12/02 02:09:11;;;;;;;0.60;0.55;;;-0.80;99.90;;;;;;6183106;23;20008;-76
2023/12/02 02:11:37;;;;;;;1.08;0.75;;;-0.80;99.90;;;;;;6209775;23;20310;-76
2023/12/02 02:14:02;;;;;;;7.72;0.88;;;-0.90;99.90;;;;;;6181504;23;20020;-76
2023/12/02 02:16:28;;;;;;;2.10;1.45;;;-0.90;99.90;;;;;;6182465;23;20410;-76
2023/12/02 02:18:54;;;;;;;0.82;0.82;;;-0.90;99.90;;;;;;6157374;23;20067;-76
2023/12/02 02:21:20;;;;;;;0.63;0.63;;;-0.90;99.90;;;;;;6158837;23;20451;-76
2023/12/02 02:23:46;;;;;;;0.22;0.22;;;-0.90;99.90;;;;;;6184841;23;20012;-76
2023/12/02 02:26:11;;;;;;;0.45;0.45;;;-0.90;99.90;;;;;;6210051;23;20361;-76
2023/12/02 02:28:37;;;;;;;1.52;0.70;;;-0.90;99.90;;;;;;6183496;23;20120;-76
2023/12/02 02:31:02;;;;;;;0.57;0.45;;;-0.90;99.90;;;;;;6208805;23;20012;-76
2023/12/02 02:33:28;;;;;;;1.55;1.45;;;-0.90;99.90;;;;;;6183958;23;20074;-76
2023/12/02 02:35:54;;;;;;;0.60;0.60;;;-0.90;99.90;;;;;;6211245;23;20455;-76
2023/12/02 02:38:19;;;;;;;0.95;0.88;;;-0.90;99.90;;;;;;6183511;23;20224;-75
2023/12/02 02:40:45;;;;;;;0.93;0.57;;;-0.80;99.90;;;;;;6185857;23;20012;-75
2023/12/02 02:43:11;;;;;;;1.45;0.55;;;-0.90;99.90;;;;;;6183504;23;20019;-75
2023/12/02 02:45:37;;;;;;;1.40;1.30;;;-0.80;99.90;;;;;;6185062;23;20020;-75
2023/12/02 02:48:02;;;;;;;1.48;1.38;;;-0.90;99.90;;;;;;6182431;23;20016;-75
2023/12/02 02:50:28;;;;;;;3.10;1.52;;;-0.90;99.90;;;;;;6184881;23;20016;-75
2023/12/02 02:52:53;;;;;;;2.63;1.25;;;-0.90;99.90;;;;;;6210450;23;20373;-76
2023/12/02 02:55:19;;;;;;;1.25;1.17;;;-0.90;99.90;;;;;;6181433;23;20486;-76
2023/12/02 02:57:46;;;;;;;1.75;1.65;;;-0.90;99.90;;;;;;6184340;23;20021;-75
2023/12/02 03:00:12;;;;;;;1.00;0.68;;;-0.90;99.90;;;;;;6210776;23;20027;-75
2023/12/02 03:02:38;;;;;;;0.47;0.47;;;-0.80;99.90;;;;;;6210412;23;20035;-75
2023/12/02 03:05:05;;;;;;;0.95;0.88;;;-0.90;99.90;;;;;;6184023;23;20448;-75
2023/12/02 03:07:31;;;;;;;2.40;0.75;;;-0.90;99.90;;;;;;6184174;23;20123;-75
2023/12/02 03:09:57;;;;;;;0.73;0.45;;;-0.80;99.90;;;;;;6184532;23;20012;-76
2023/12/02 03:12:24;;;;;;;8.30;1.65;;;-0.80;99.90;;;;;;6210689;23;20020;-75
2023/12/02 03:14:50;;;;;;;1.45;1.35;;;-0.80;99.90;;;;;;6183820;23;20012;-76
2023/12/02 03:17:15;;;;;;;4.20;1.20;;;-0.80;99.90;;;;;;6183957;23;20084;-75
2023/12/02 03:19:41;;;;;;;1.48;1.38;;;-0.80;99.90;;;;;;6182833;23;20009;-75
2023/12/02 03:22:07;;;;;;;10.20;2.15;;;-0.80;99.90;;;;;;6184599;23;20500;-75
2023/12/02 03:24:33;;;;;;;0.65;0.65;;;-0.80;99.90;;;;;;6181663;23;20036;-75
2023/12/02 03:26:58;;;;;;;1.55;1.17;;;-0.80;99.90;;;;;;6184133;23;20009;-76
2023/12/02 03:29:24;;;;;;;1.35;0.82;;;-0.80;99.90;;;;;;6210412;23;20032;-76
2023/12/02 03:31:49;;;;;;;1.25;1.20;;;-0.80;99.90;;;;;;6182608;23;20040;-76
2023/12/02 03:34:15;;;;;;;6.93;0.60;;;-0.70;99.90;;;;;;6181368;23;20035;-75
2023/12/02 03:36:40;;;;;;;2.60;0.80;;;-0.80;99.90;;;;;;6182717;23;20016;-75
2023/12/02 03:39:06;;;;;;;0.88;0.88;;;-0.80;99.90;;;;;;6182799;23;20013;-75
2023/12/02 03:41:32;;;;;;;6.35;1.67;;;-0.80;99.90;;;;;;6183129;23;20032;-75
2023/12/02 03:43:58;;;;;;;2.40;2.05;;;-0.80;99.90;;;;;;6179413;23;20143;-75
2023/12/02 03:46:23;;;;;;;5.43;2.35;;;-0.80;99.90;;;;;;6209341;23;20567;-76
2023/12/02 03:48:49;;;;;;;1.45;1.35;;;-0.80;99.90;;;;;;6207641;23;20020;-75
2023/12/02 03:51:14;;;;;;;4.15;2.97;;;-0.90;99.90;;;;;;6183597;23;20432;-76
2023/12/02 03:53:40;;;;;;;1.17;0.82;;;-0.90;99.90;;;;;;6183372;23;20082;-75
2023/12/02 03:56:06;;;;;;;3.10;1.13;;;-0.90;99.90;;;;;;6183233;23;20016;-75
2023/12/02 03:58:31;;;;;;;1.00;0.98;;;-0.90;99.90;;;;;;6180885;23;20021;-75
2023/12/02 04:00:57;;;;;;;1.48;1.35;;;-0.90;99.90;;;;;;6184190;23;20091;-75
2023/12/02 04:03:23;;;;;;;2.58;2.38;;;-1.00;99.90;;;;;;6209031;23;20017;-75
2023/12/02 04:05:52;;;;;;;1.50;1.40;;;-1.00;99.90;;;;;;6183735;23;20051;-75
2023/12/02 04:08:17;;;;;;;1.30;0.98;;;-1.00;99.90;;;;;;6179186;23;20009;-75
2023/12/02 04:10:43;;;;;;;2.78;1.10;;;-1.00;99.90;;;;;;6209184;23;20427;-75
2023/12/02 04:13:08;;;;;;;4.82;2.10;;;-1.00;99.90;;;;;;6209560;23;20601;-75
2023/12/02 04:15:35;;;;;;;1.55;1.45;;;-1.00;99.90;;;;;;6182768;23;20020;-75
2023/12/02 04:18:00;;;;;;;1.38;1.27;;;-1.00;99.90;;;;;;6181547;23;20059;-75
2023/12/02 04:20:26;;;;;;;11.38;1.55;;;-1.10;99.90;;;;;;6183600;23;20345;-75
2023/12/02 04:22:52;;;;;;;2.70;1.98;;;-1.10;99.90;;;;;;6182709;23;20015;-76
2023/12/02 04:25:18;;;;;;;0.28;0.28;;;-1.10;99.90;;;;;;6182088;23;20412;-76
2023/12/02 04:27:44;;;;;;;0.70;0.70;;;-1.10;99.90;;;;;;6135849;23;1080523;-76
2023/12/02 04:30:09;;;;;;;1.02;1.00;;;-1.10;99.90;;;;;;6210227;23;20492;-76
2023/12/02 04:32:35;;;;;;;1.25;1.25;;;-1.10;99.90;;;;;;6206922;23;20013;-76
2023/12/02 04:35:01;;;;;;;1.65;1.38;;;-1.10;99.90;;;;;;6184376;23;20020;-76
2023/12/02 04:37:26;;;;;;;0.77;0.77;;;-1.10;99.90;;;;;;6211056;23;20024;-76
2023/12/02 04:39:54;;;;;;;5.43;1.00;;;-1.10;99.90;;;;;;6184003;23;20040;-76
2023/12/02 04:42:19;;;;;;;1.27;0.70;;;-1.10;99.90;;;;;;6184460;23;20009;-76
2023/12/02 04:44:45;;;;;;;1.80;1.70;;;-1.20;99.90;;;;;;6183466;23;20276;-76
2023/12/02 04:47:10;;;;;;;1.08;0.63;;;-1.20;99.90;;;;;;6183873;23;20027;-76
2023/12/02 04:49:36;;;;;;;0.73;0.63;;;-1.20;99.90;;;;;;6183283;23;20024;-76
2023/12/02 04:52:01;;;;;;;1.08;1.08;;;-1.20;99.90;;;;;;6183632;23;20012;-76
2023/12/02 04:54:27;;;;;;;0.20;0.20;;;-1.10;99.90;;;;;;6205689;23;20012;-76
2023/12/02 04:56:52;;;;;;;0.55;0.55;;;-1.10;99.90;;;;;;6181810;23;20019;-76
2023/12/02 04:59:18;;;;;;;1.02;0.82;;;-1.10;99.90;;;;;;6183647;23;20020;-76
2023/12/02 05:01:44;;;;;;;0.90;0.90;;;-1.10;99.90;;;;;;6183062;23;20467;-76
2023/12/02 05:04:09;;;;;;;3.85;0.98;;;-1.10;99.90;;;;;;6207652;23;20087;-76
2023/12/02 05:06:35;;;;;;;0.28;0.28;;;-1.10;99.90;;;;;;6210647;23;20051;-76
2023/12/02 05:09:00;;;;;;;1.35;1.23;;;-1.10;99.90;;;;;;6184521;23;20032;-76
2023/12/02 05:11:26;;;;;;;1.08;0.95;;;-1.10;99.90;;;;;;6211459;23;20305;-76
2023/12/02 05:13:51;;;;;;;1.55;0.52;;;-1.10;99.90;;;;;;6182099;23;20059;-76
2023/12/02 05:16:18;;;;;;;1.65;1.55;;;-1.10;99.90;;;;;;6184425;23;20035;-76
2023/12/02 05:18:44;;;;;;;1.83;1.73;;;-1.10;99.90;;;;;;6179682;23;20501;-76
2023/12/02 05:21:09;;;;;;;0.70;0.70;;;-1.10;99.90;;;;;;6184081;23;20404;-76
2023/12/02 05:23:35;;;;;;;0.32;0.32;;;-1.00;99.90;;;;;;6209716;23;20088;-76
2023/12/02 05:26:01;;;;;;;3.10;1.35;;;-1.00;99.90;;;;;;6184086;23;20100;-76
2023/12/02 05:28:27;;;;;;;1.10;1.10;;;-1.00;99.90;;;;;;6182309;23;20076;-75
2023/12/02 05:30:53;;;;;;;1.45;1.35;;;-1.00;99.90;;;;;;6184436;23;20009;-75
2023/12/02 05:33:22;;;;;;;3.75;1.65;;;-1.00;99.90;;;;;;6208931;23;20016;-75
2023/12/02 05:35:48;;;;;;;1.15;0.98;;;-1.00;99.90;;;;;;6210442;23;20015;-75
2023/12/02 05:38:13;;;;;;;1.17;1.17;;;-1.00;99.90;;;;;;6184591;23;20012;-74
2023/12/02 05:40:39;;;;;;;8.07;2.00;;;-1.00;99.90;;;;;;6161157;23;20013;-74
2023/12/02 05:43:04;;;;;;;1.95;1.20;;;-1.00;99.90;;;;;;6184200;23;20059;-74
2023/12/02 05:45:30;;;;;;;1.95;1.85;;;-1.00;99.90;;;;;;6185220;23;20017;-74
2023/12/02 05:47:55;;;;;;;1.20;0.93;;;-1.00;99.90;;;;;;6186000;23;20009;-74
2023/12/02 05:50:21;;;;;;;3.60;1.58;;;-1.00;99.90;;;;;;6184731;23;20009;-75
2023/12/02 05:52:47;;;;;;;1.65;1.55;;;-1.00;99.90;;;;;;6210636;23;20027;-74
2023/12/02 05:55:12;;;;;;;4.65;1.25;;;-1.10;99.90;;;;;;6158674;23;20021;-75
2023/12/02 05:57:38;;;;;;;1.60;1.17;;;-1.10;99.90;;;;;;6183528;23;20463;-74
2023/12/02 06:00:05;;;;;;;2.17;1.30;;;-1.10;99.90;;;;;;6185628;23;20440;-74
2023/12/02 06:02:30;;;;;;;2.65;1.75;;;-1.10;99.90;;;;;;6184253;23;20017;-74
2023/12/02 06:04:56;;;;;;;2.65;1.90;;;-1.10;99.90;;;;;;6186042;23;20368;-75
2023/12/02 06:07:21;;;;;;;0.95;0.93;;;-1.10;99.90;;;;;;6185228;23;20062;-75
2023/12/02 06:09:47;;;;;;;3.70;2.97;;;-1.10;99.90;;;;;;6213594;23;20009;-75
2023/12/02 06:12:12;;;;;;;4.38;3.08;;;-1.20;99.90;;;;;;6186054;23;20013;-75
2023/12/02 06:14:39;;;;;;;1.73;1.17;;;-1.20;99.90;;;;;;6185696;23;20016;-74
2023/12/02 06:17:07;;;;;;;1.60;1.48;;;-1.10;99.90;;;;;;6185641;23;20096;-74
2023/12/02 06:19:32;;;;;;;3.70;1.77;;;-1.10;99.90;;;;;;6184381;23;20391;-75
2023/12/02 06:21:58;;;;;;;4.65;2.42;;;-1.20;99.90;;;;;;6184653;23;20051;-75
2023/12/02 06:24:23;;;;;;;2.60;1.25;;;-1.20;99.90;;;;;;6181273;23;20025;-75
2023/12/02 06:26:49;;;;;;;1.65;1.48;;;-1.20;99.90;;;;;;6207664;23;20570;-74
2023/12/02 06:29:15;;;;;;;3.65;1.90;;;-1.10;99.90;;;;;;6182759;23;20016;-74
2023/12/02 06:31:41;;;;;;;1.65;1.13;;;-1.20;99.90;;;;;;6180521;23;20048;-75
2023/12/02 06:34:07;;;;;;;1.70;1.60;;;-1.10;99.90;;;;;;6182036;23;20032;-75
2023/12/02 06:36:32;;;;;;;1.05;1.05;;;-1.10;99.90;;;;;;6183420;23;20055;-75
2023/12/02 06:38:58;;;;;;;1.63;1.52;;;-1.10;99.90;;;;;;6183343;23;20510;-75
2023/12/02 06:41:24;;;;;;;2.78;1.42;;;-1.10;99.90;;;;;;6211275;23;20024;-74
2023/12/02 06:43:50;;;;;;;1.23;1.13;;;-1.10;99.90;;;;;;6182470;23;20021;-75
2023/12/02 06:46:23;;;;;;;2.33;2.13;;;-1.10;99.90;;;;;;6159958;23;20070;-74
2023/12/02 06:48:49;;;;;;;2.55;1.38;;;-1.10;99.90;;;;;;6184357;23;20005;-74
2023/12/02 06:51:15;;;;;;;1.85;1.75;;;-1.10;99.90;;;;;;6186073;23;20019;-74
2023/12/02 06:53:41;;;;;;;5.85;2.20;;;-1.10;99.90;;;;;;6184467;23;20467;-73
2023/12/02 06:56:21;;;;;;;2.20;2.00;;;-1.10;99.90;;;;;;6178448;23;20025;-74
2023/12/02 06:58:50;;;;;;;4.72;3.22;;;-1.10;99.90;;;;;;6209093;23;20317;-72
2023/12/02 07:01:26;;;;;;;15.38;2.42;;;-1.10;99.90;;;;;;6184144;23;20087;-74
2023/12/02 07:03:56;;;;;;;1.30;1.27;;;-1.10;99.90;;;;;;6181736;23;20330;-74
2023/12/02 07:06:22;;;;;;;0.55;0.55;;;-1.10;99.90;;;;;;6157400;23;20016;-74
2023/12/02 07:08:51;;;;;;;2.17;1.35;;;-1.10;99.90;;;;;;6184096;23;20017;-75
2023/12/02 07:11:17;;;;;;;1.30;1.13;;;-1.10;99.90;;;;;;6212410;23;20012;-75
2023/12/02 07:13:43;;;;;;;3.15;1.85;;;-1.10;99.90;;;;;;6211870;23;20036;-75
2023/12/02 07:16:10;;;;;;;0.70;0.38;;;-1.20;99.90;;;;;;6212619;23;20371;-74
2023/12/02 07:18:35;;;;;;;1.05;1.02;;;-1.20;99.90;;;;;;6180533;23;20024;-75
2023/12/02 07:21:01;;;;;;;4.07;1.48;;;-1.20;99.90;;;;;;6185613;23;20012;-74
2023/12/02 07:23:28;;;;;;;10.30;1.35;;;-1.20;99.90;;;;;;6183007;23;20016;-74
2023/12/02 07:25:58;;;;;;;1.80;1.15;;;-1.20;99.90;;;;;;6184212;23;20440;-74
2023/12/02 07:28:24;;;;;;;3.65;2.05;;;-1.20;99.90;;;;;;6184196;23;20015;-75
2023/12/02 07:30:50;;;;;;;1.02;0.93;;;-1.20;99.90;;;;;;6185078;23;20016;-74
2023/12/02 07:33:19;;;;;;;1.58;1.05;;;-1.20;99.90;;;;;;6210800;23;20044;-74
2023/12/02 07:35:45;;;;;;;1.45;1.20;;;-1.20;99.90;;;;;;6183912;23;20474;-74
2023/12/02 07:38:10;;;;;;;1.80;1.70;;;-1.10;99.90;;;;;;6183108;23;20350;-74
2023/12/02 07:40:36;;;;;;;2.33;2.08;;;-1.10;99.90;;;;;;6184986;23;20016;-74
2023/12/02 07:43:02;;;;;;;3.83;1.70;;;-1.10;99.90;;;;;;6178963;23;20020;-74
2023/12/02 07:45:28;;;;;;;2.17;1.63;;;-1.10;99.90;;;;;;6159526;23;20091;-74
2023/12/02 07:47:53;;;;;;;9.00;4.03;;;-1.10;99.90;;;;;;6161550;23;20015;-73
2023/12/02 07:50:19;;;;;;;5.25;1.88;;;-1.10;99.90;;;;;;6187812;23;20495;-74
2023/12/02 07:52:46;;;;;;;2.78;1.10;;;-1.10;99.90;;;;;;6186714;23;20293;-73
2023/12/02 07:55:12;;;;;;;4.38;1.48;;;-1.10;99.90;;;;;;6186372;23;20095;-73
2023/12/02 07:57:38;;;;;;;0.45;0.45;;;-1.10;99.90;;;;;;6186805;23;20021;-73
2023/12/02 08:00:05;;;;;;;2.95;1.33;;;-1.20;99.90;;;;;;6188088;23;20017;-73
2023/12/02 08:02:30;;;;;;;1.08;1.08;;;-1.10;99.90;;;;;;6188604;23;20023;-72
2023/12/02 08:04:57;;;;;;;1.52;1.10;;;-1.10;99.90;;;;;;6214936;23;20013;-72
2023/12/02 08:07:24;;;;;;;1.10;1.10;;;-1.10;99.90;;;;;;6188290;23;20405;-72
2023/12/02 08:09:50;;;;;;;1.83;1.70;;;-1.10;99.90;;;;;;6189306;23;20024;-72
2023/12/02 08:12:15;;;;;;;1.70;1.60;;;-1.10;99.90;;;;;;6188631;23;20470;-73
2023/12/02 08:14:43;;;;;;;2.22;1.25;;;-1.10;99.90;;;;;;6215495;23;20020;-73
2023/12/02 08:17:08;;;;;;;1.23;1.13;;;-1.10;99.90;;;;;;6189185;23;20020;-73
2023/12/02 08:19:35;;;;;;;2.55;2.22;;;-1.10;99.90;;;;;;6187421;23;20469;-72
2023/12/02 08:22:01;;;;;;;1.50;1.40;;;-1.00;99.90;;;;;;6188583;23;20143;-73
2023/12/02 08:24:26;;;;;;;2.25;1.15;;;-1.10;99.90;;;;;;6187595;23;20043;-73
2023/12/02 08:26:52;;;;;;;8.10;1.80;;;-1.00;99.90;;;;;;6187558;23;20012;-73
2023/12/02 08:29:17;;;;;;;4.18;1.40;;;-1.00;99.90;;;;;;6185369;23;20650;-73
2023/12/02 08:31:43;;;;;;;2.15;0.73;;;-0.90;99.90;;;;;;6184315;23;20008;-73
2023/12/02 08:34:08;;;;;;;1.60;0.85;;;-0.90;99.90;;;;;;6187844;23;20021;-73
2023/12/02 08:36:34;;;;;;;10.85;2.35;;;-0.90;99.90;;;;;;6213856;23;20024;-73
2023/12/02 08:39:00;;;;;;;4.25;1.63;;;-0.90;99.90;;;;;;6213670;23;20020;-73
2023/12/02 08:41:26;;;;;;;1.50;1.42;;;-0.90;99.90;;;;;;6187416;23;20731;-73
2023/12/02 08:43:51;;;;;;;5.63;3.60;;;-0.80;99.90;;;;;;6185270;23;20013;-73
2023/12/02 08:46:17;;;;;;;3.17;1.40;;;-0.80;99.90;;;;;;6188012;23;20012;-73
2023/12/02 08:48:44;;;;;;;2.30;1.85;;;-0.80;99.90;;;;;;6160340;23;20064;-73
2023/12/02 08:51:10;;;;;;;2.10;1.83;;;-0.80;99.90;;;;;;6186758;23;20012;-73
2023/12/02 08:53:35;;;;;;;1.55;1.45;;;-0.70;99.90;;;;;;6183623;23;20399;-73
2023/12/02 08:56:01;;;;;;;5.65;2.92;;;-0.70;99.90;;;;;;6182697;23;20027;-73
2023/12/02 08:58:27;;;;;;;1.85;0.77;;;-0.70;99.90;;;;;;6184151;23;20023;-73
2023/12/02 09:00:52;;;;;;;3.35;2.40;;;-0.60;99.90;;;;;;6185899;23;20017;-73
2023/12/02 09:03:18;;;;;;;7.97;1.35;;;-0.60;99.90;;;;;;6186110;23;20039;-73
2023/12/02 09:05:44;;;;;;;4.53;2.50;;;-0.60;99.90;;;;;;6212464;23;20069;-73
2023/12/02 09:08:10;;;;;;;3.30;1.50;;;-0.60;99.90;;;;;;6186402;23;20758;-73
2023/12/02 09:10:35;;;;;;;2.70;1.77;;;-0.60;99.90;;;;;;6213194;23;20012;-74
2023/12/02 09:13:06;;;;;;;2.20;1.25;;;-0.50;99.90;;;;;;6184580;23;20036;-74
2023/12/02 09:15:39;;;;;;;0.73;0.73;;;-0.50;99.90;;;;;;6211712;23;20023;-73
2023/12/02 09:18:04;;;;;;;2.55;1.60;;;-0.50;99.90;;;;;;6207534;23;20446;-73
2023/12/02 09:20:38;;;;;;;1.55;1.45;;;-0.50;99.90;;;;;;6183651;23;20328;-73
2023/12/02 09:23:06;;;;;;;2.85;2.30;;;-0.50;99.90;;;;;;6183665;23;20017;-70
2023/12/02 09:25:38;;;;;;;0.43;0.43;;;-0.40;99.90;;;;;;6183354;23;20009;-70
2023/12/02 09:28:06;;;;;;;4.38;1.05;;;-0.40;99.90;;;;;;6184090;23;20055;-70
2023/12/02 09:31:09;;;;;;;4.05;1.48;;;-0.30;99.90;;;;;;6183123;23;20017;-70
2023/12/02 09:33:34;;;;;;;2.22;2.03;;;-0.30;99.90;;;;;;6164676;23;20017;-70
2023/12/02 09:36:02;;;;;;;5.93;2.80;;;-0.20;99.90;;;;;;6209286;23;20448;-70
2023/12/02 09:38:28;;;;;;;2.70;1.58;;;-0.30;99.90;;;;;;6184223;23;20028;-70
2023/12/02 09:41:13;;;;;;;5.57;2.35;;;-0.20;99.90;;;;;;6184812;23;20019;-70
2023/12/02 09:43:44;;;;;;;1.40;1.30;;;-0.20;99.90;;;;;;6181072;23;20491;-70
2023/12/02 09:46:22;;;;;;;2.47;1.50;;;-0.20;99.90;;;;;;6183860;23;20017;-70
2023/12/02 09:49:12;;;;;;;5.72;2.20;;;-0.20;99.90;;;;;;6184614;23;20020;-70
2023/12/02 09:51:56;;;;;;;7.10;2.83;;;-0.20;99.90;;;;;;6185160;23;20012;-70
2023/12/02 09:54:41;;;;;;;10.05;2.00;;;-0.20;99.90;;;;;;6181614;23;20008;-70
2023/12/02 09:57:29;;;;;;;4.32;2.75;;;-0.10;99.90;;;;;;6184306;23;20030;-70
2023/12/02 10:00:05;;;;;;;6.13;2.75;;;0.00;99.90;;;;;;6101747;23;20016;-70
2023/12/02 10:03:06;;;;;;;2.40;2.30;;;0.00;99.90;;;;;;6211391;23;20052;-70
2023/12/02 10:05:59;;;;;;;8.75;3.78;;;0.10;99.90;;;;;;6182206;23;20017;-69
2023/12/02 10:08:53;;;;;;;2.13;1.75;;;0.20;99.90;;;;;;6183795;23;20008;-70
2023/12/02 10:11:27;;;;;;;2.08;1.55;;;0.30;99.90;;;;;;6183252;23;20016;-70
2023/12/02 10:13:59;;;;;;;1.67;1.33;;;0.30;99.90;;;;;;6184094;23;20016;-70
2023/12/02 10:16:31;;;;;;;12.55;4.05;;;0.30;99.90;;;;;;6183590;23;20119;-71
2023/12/02 10:19:04;;;;;;;3.30;1.40;;;0.40;99.90;;;;;;6209795;23;20104;-69
2023/12/02 10:21:32;;;;;;;2.65;1.75;;;0.40;99.90;;;;;;6185383;23;20008;-70
2023/12/02 10:24:07;;;;;;;3.15;1.98;;;0.40;99.90;;;;;;6182437;23;20345;-70
2023/12/02 10:26:55;;;;;;;5.20;1.88;;;0.40;99.90;;;;;;6184818;23;20016;-70
2023/12/02 10:29:28;;;;;;;2.47;2.25;;;0.50;99.90;;;;;;6206983;23;20027;-71
2023/12/02 10:32:03;;;;;;;2.67;2.00;;;0.50;99.90;;;;;;6159418;23;20016;-70
2023/12/02 10:34:37;;;;;;;2.50;1.75;;;0.50;99.90;;;;;;6182888;23;20059;-70
2023/12/02 10:37:04;;;;;;;1.42;0.77;;;0.50;99.90;;;;;;6184807;23;20020;-70
2023/12/02 10:39:43;;;;;;;5.28;2.20;;;0.60;99.90;;;;;;6182703;23;20123;-71
2023/12/02 10:42:21;;;;;;;3.28;2.30;;;0.60;99.90;;;;;;6185578;23;20016;-71
2023/12/02 10:44:53;;;;;;;7.60;1.40;;;0.70;99.90;;;;;;6184871;23;20084;-70
2023/12/02 10:47:19;;;;;;;3.97;2.65;;;0.70;99.90;;;;;;6184930;23;20015;-72
2023/12/02 10:49:45;;;;;;;4.80;3.72;;;0.60;99.90;;;;;;6184623;23;20396;-71
2023/12/02 10:52:14;;;;;;;5.45;3.80;;;0.70;99.90;;;;;;6186662;23;20017;-70
2023/12/02 10:54:42;;;;;;;3.65;1.65;;;0.70;99.90;;;;;;6183283;23;20074;-70
2023/12/02 10:57:09;;;;;;;1.80;1.58;;;0.70;99.90;;;;;;6185096;23;20016;-70
2023/12/02 10:59:42;;;;;;;3.67;3.17;;;0.80;99.90;;;;;;6185667;23;20083;-71
2023/12/02 11:02:33;;;;;;;1.52;1.42;;;0.70;99.90;;;;;;6213897;23;20023;-69
2023/12/02 11:05:14;;;;;;;11.30;2.65;;;0.70;99.90;;;;;;6208622;23;20048;-70
2023/12/02 11:07:51;;;;;;;1.75;1.13;;;0.70;99.90;;;;;;6185978;23;20292;-70
2023/12/02 11:10:30;;;;;;;12.70;2.05;;;0.60;99.90;;;;;;6160354;23;20020;-70
2023/12/02 11:13:01;;;;;;;2.20;1.63;;;0.60;99.90;;;;;;6186755;23;20017;-70
2023/12/02 11:15:28;;;;;;;4.83;1.10;;;0.60;99.90;;;;;;6186662;23;20017;-69
2023/12/02 11:18:00;;;;;;;5.75;1.65;;;0.60;99.90;;;;;;6160081;23;20334;-70
2023/12/02 11:21:05;;;;;;;2.70;1.52;;;0.60;99.90;;;;;;6160937;23;20024;-71
2023/12/02 11:23:55;;;;;;;15.38;2.33;;;0.70;99.90;;;;;;6065582;23;20042;-70
2023/12/02 11:26:41;;;;;;;3.13;2.05;;;0.80;99.90;;;;;;6091113;23;20038;-70
2023/12/02 11:29:25;;;;;;;3.13;2.40;;;0.90;99.90;;;;;;6184365;23;20451;-70
2023/12/02 11:32:29;;;;;;;5.82;1.75;;;1.00;99.90;;;;;;6185773;23;20016;-70
2023/12/02 11:35:11;;;;;;;3.95;3.67;;;1.20;99.90;;;;;;6119377;23;20035;-69
2023/12/02 11:38:04;;;;;;;1.73;1.58;;;1.40;99.90;;;;;;6185270;23;20367;-71
2023/12/02 11:40:41;;;;;;;1.10;0.95;;;1.40;99.90;;;;;;6180545;23;20043;-71
2023/12/02 11:43:11;;;;;;;1.40;1.38;;;1.50;99.90;;;;;;6212483;23;20043;-72
2023/12/02 11:45:42;;;;;;;4.35;2.80;;;1.50;99.90;;;;;;6185348;23;20019;-71
2023/12/02 11:48:20;;;;;;;3.78;2.33;;;1.50;99.90;;;;;;6184030;23;20390;-71
2023/12/02 11:51:06;;;;;;;5.28;3.58;;;1.50;99.90;;;;;;6183891;23;20013;-72
2023/12/02 11:53:31;;;;;;;1.90;1.75;;;1.50;99.90;;;;;;6182965;23;20092;-71
2023/12/02 11:56:09;;;;;;;7.40;2.10;;;1.60;99.90;;;;;;6211442;23;20052;-72
2023/12/02 11:58:53;;;;;;;3.75;3.10;;;1.60;99.90;;;;;;6181724;23;20340;-71
2023/12/02 12:01:31;;;;;;;6.07;2.75;;;1.60;99.90;;;;;;6184917;23;20023;-71
2023/12/02 12:04:30;;;;;;;2.45;2.25;;;1.60;99.90;;;;;;6183458;23;20017;-71
2023/12/02 12:07:34;;;;;;;10.48;4.15;;;1.60;99.90;;;;;;6184711;23;20008;-71
2023/12/02 12:10:07;;;;;;;3.47;1.77;;;1.60;99.90;;;;;;6211839;23;20012;-71
2023/12/02 12:12:36;;;;;;;3.90;2.45;;;1.60;99.90;;;;;;6184443;23;20021;-71
2023/12/02 12:15:02;;;;;;;6.25;2.10;;;1.60;99.90;;;;;;6160404;23;20082;-72
2023/12/02 12:17:29;;;;;;;6.60;3.25;;;1.60;99.90;;;;;;6184729;23;20034;-72
2023/12/02 12:19:59;;;;;;;4.35;1.38;;;1.70;99.90;;;;;;6212811;23;20012;-71
2023/12/02 12:22:26;;;;;;;4.13;1.75;;;1.70;99.90;;;;;;6184260;23;20314;-71
2023/12/02 12:24:51;;;;;;;4.57;3.28;;;1.70;99.90;;;;;;6185411;23;20127;-72
2023/12/02 12:27:17;;;;;;;3.58;2.38;;;1.70;99.90;;;;;;6185031;23;20044;-72
2023/12/02 12:29:53;;;;;;;10.75;2.97;;;1.70;99.90;;;;;;6212355;23;20389;-72
2023/12/02 12:32:19;;;;;;;2.75;2.47;;;1.80;99.90;;;;;;6183134;23;20013;-73
2023/12/02 12:34:44;;;;;;;8.77;2.15;;;1.80;99.90;;;;;;6185576;23;20054;-72
2023/12/02 12:37:17;;;;;;;4.80;2.47;;;1.80;99.90;;;;;;6184305;23;20511;-72
2023/12/02 12:39:47;;;;;;;4.85;1.90;;;1.80;99.90;;;;;;6212593;23;20379;-72
2023/12/02 12:42:13;;;;;;;6.20;2.08;;;1.90;99.90;;;;;;6184315;23;20016;-72
2023/12/02 12:44:41;;;;;;;7.30;1.80;;;1.80;99.90;;;;;;6185261;23;20477;-72
2023/12/02 12:47:11;;;;;;;11.65;1.73;;;1.80;99.90;;;;;;6185493;23;20023;-72
2023/12/02 12:49:42;;;;;;;5.53;1.75;;;1.90;99.90;;;;;;6184912;23;20042;-73
2023/12/02 12:52:09;;;;;;;2.97;1.10;;;1.90;99.90;;;;;;6183763;23;20081;-70
2023/12/02 12:54:45;;;;;;;15.35;2.88;;;1.90;99.90;;;;;;6184708;23;20019;-71